createdAt,value
2022-11-11T00:14:25.581Z,7.29
2022-11-11T00:29:21.584Z,7.43
2022-11-11T00:44:18.046Z,7.47
2022-11-11T00:59:14.067Z,7.33
2022-11-11T01:14:10.098Z,7.39
2022-11-11T01:29:06.249Z,6.95
2022-11-11T01:44:02.543Z,6.29
2022-11-11T01:58:58.375Z,5.93
2022-11-11T02:13:55.081Z,5.51
2022-11-11T02:28:50.934Z,5.59
2022-11-11T02:43:47.022Z,5.35
2022-11-11T02:58:42.750Z,4.97
2022-11-11T03:13:39.368Z,4.86
2022-11-11T03:28:35.181Z,4.81
2022-11-11T03:43:31.117Z,4.58
2022-11-11T03:58:26.378Z,4.16
2022-11-11T04:13:23.071Z,4.4
2022-11-11T04:28:18.754Z,4.47
2022-11-11T04:43:15.060Z,4.56
2022-11-11T04:58:11.630Z,4.98
2022-11-11T05:13:08.072Z,4.81
2022-11-11T05:28:03.952Z,4.54
2022-11-11T05:42:59.989Z,4.97
2022-11-11T05:57:56.269Z,4.89
2022-11-11T06:12:52.695Z,5.09
2022-11-11T06:27:48.034Z,5.48
2022-11-11T06:42:44.354Z,5.74
2022-11-11T06:57:40.676Z,5.38
2022-11-11T07:12:36.881Z,5.86
2022-11-11T07:27:33.460Z,6.44
2022-11-11T07:42:31.947Z,6.57
2022-11-11T07:57:26.626Z,6.86
2022-11-11T08:12:23.618Z,7.61
2022-11-11T08:27:19.873Z,8.2
2022-11-11T08:42:16.544Z,8.71
2022-11-11T08:57:13.079Z,9.01
2022-11-11T09:12:09.495Z,9.34
2022-11-11T09:27:06.203Z,9.74
2022-11-11T09:42:06.672Z,9.99
2022-11-11T09:56:59.522Z,10.15
2022-11-11T10:11:56.379Z,10.79
2022-11-11T10:26:52.511Z,10.87
2022-11-11T10:41:48.868Z,10.94
2022-11-11T10:56:45.146Z,11.22
2022-11-11T11:11:42.049Z,11.67
2022-11-11T11:26:37.695Z,11.97
2022-11-11T11:41:34.318Z,12.22
2022-11-11T11:56:30.575Z,12.53
2022-11-11T12:11:26.541Z,12.82
2022-11-11T12:26:22.958Z,13.23
2022-11-11T12:41:19.055Z,13.53
2022-11-11T12:56:16.072Z,13.6
2022-11-11T13:11:13.200Z,13.72
2022-11-11T13:26:09.055Z,13.97
2022-11-11T13:41:05.592Z,13.96
2022-11-11T13:56:02.038Z,13.84
2022-11-11T14:10:58.062Z,13.88
2022-11-11T14:25:53.838Z,13.86
2022-11-11T14:40:50.299Z,15.08
2022-11-11T14:55:46.407Z,13.44
2022-11-11T15:10:42.182Z,13.04
2022-11-11T15:25:37.857Z,12.03
2022-11-11T15:40:33.006Z,11.47
2022-11-11T15:55:28.560Z,10.85
2022-11-11T16:10:24.207Z,10.07
2022-11-11T16:25:20.118Z,10.2
2022-11-11T16:40:16.580Z,9.55
2022-11-11T16:55:12.217Z,9.87
2022-11-11T17:10:08.246Z,9.91
2022-11-11T17:25:04.216Z,8.98
2022-11-11T17:40:00.188Z,8.4
2022-11-11T17:54:55.826Z,7.91
2022-11-11T18:09:52.142Z,7.36
2022-11-11T18:24:47.815Z,6.86
2022-11-11T18:39:43.573Z,6.46
2022-11-11T18:54:39.879Z,6.6
2022-11-11T19:09:35.541Z,6.48
2022-11-11T19:24:33.901Z,6.73
2022-11-11T19:39:27.919Z,7.97
2022-11-11T19:54:23.950Z,7.95
2022-11-11T20:09:20.390Z,6.95
2022-11-11T20:24:16.106Z,6.53
2022-11-11T20:39:12.684Z,6.63
2022-11-11T20:54:08.874Z,7.66
2022-11-11T21:09:05.651Z,7.75
2022-11-11T21:24:01.590Z,7.5
2022-11-11T21:38:57.899Z,6.79
2022-11-11T21:53:57.979Z,7.56
2022-11-11T22:08:49.909Z,7.48
2022-11-11T22:23:45.550Z,7.36
2022-11-11T22:38:41.844Z,6.97
2022-11-11T22:53:38.129Z,6.78
2022-11-11T23:08:34.226Z,6.57
2022-11-11T23:23:30.158Z,6.33
2022-11-11T23:38:26.585Z,6.14
2022-11-11T23:53:22.416Z,5.99
